Flight Track Log - Related Links

Times and Time Zones

All times are in EDT time to prevent confusion due to time zone crossing. See the SKW6318 flight status page for this flight to view local times or setup timezone preferences in your user account.


Time Position Orientation Groundspeed Altitude Reporting Facility
EDT Latitude Longitude Course Direction KTS MPH feet Rate Location/Type
Tue 12:03:13 AM 39.9667 -104.6500 34° Northeast 229 264 7,700  Level Denver TRACON
Tue 12:04:08 AM 40.0239 -104.6053 31° Northeast 281 323 8,700 1,345 Climbing Denver Center
Tue 12:05:00 AM 40.1866 -104.5000 North  Level FlightAware Approximate
Tue 12:05:09 AM 40.0950 -104.5544 29° Northeast 294 338 10,300  Level Denver Center
Tue 12:06:00 AM 40.3153 -104.4848 37° Northeast  Level FlightAware Approximate
Tue 12:06:11 AM 40.1731 -104.5042 26° Northeast 311 358 11,900  Level Denver Center
Tue 12:07:00 AM 40.4194 -104.3778 57° Northeast  Level FlightAware Approximate
Tue 12:07:12 AM 40.2628 -104.4456 26° Northeast 334 384 13,500  Level Denver Center
Tue 12:08:00 AM 40.5056 -104.2869 34° Northeast  Level FlightAware Approximate
Tue 12:08:13 AM 40.3464 -104.3869 28° Northeast 344 396 14,900  Level Denver Center
Tue 12:09:15 AM 40.4364 -104.3317 25° Northeast 357 411 16,400 1,415 Climbing Denver Center
Tue 12:10:16 AM 40.5306 -104.2639 29° Northeast 362 417 17,800 1,024 Climbing Denver Center
Tue 12:11:18 AM 40.6269 -104.2075 24° Northeast 380 437 18,500 780 Climbing Denver Center
Tue 12:12:19 AM 40.7194 -104.1331 31° Northeast 389 448 19,400 885 Climbing Denver Center
Tue 12:13:20 AM 40.8014 -104.0467 39° Northeast 391 450 20,300 780 Climbing Denver Center
Tue 12:14:22 AM 40.8892 -103.9478 40° Northeast 412 474 21,000 537 Climbing Denver Center
Tue 12:15:23 AM 40.9600 -103.8683 40° Northeast 417 480 21,400 683 Climbing Denver Center
Tue 12:16:25 AM 41.0642 -103.7303 45° Northeast 424 488 22,400 927 Climbing Denver Center
Tue 12:17:26 AM 41.1408 -103.5872 55° Northeast 425 489 23,300 732 Climbing Denver Center
Tue 12:18:28 AM 41.2100 -103.4706 52° Northeast 423 487 23,900 585 Climbing Denver Center
Tue 12:19:29 AM 41.2903 -103.3272 53° Northeast 432 497 24,500 541 Climbing Denver Center
Tue 12:20:30 AM 41.3564 -103.2031 55° Northeast 431 496 25,000 439 Climbing Denver Center
Tue 12:21:32 AM 41.4258 -103.0772 54° Northeast 440 506 25,400 488 Climbing Denver Center
Tue 12:22:33 AM 41.5058 -102.9331 53° Northeast 436 502 26,000 537 Climbing Denver Center
Tue 12:23:35 AM 41.5764 -102.8064 53° Northeast 442 509 26,500 488 Climbing Denver Center
Tue 12:24:36 AM 41.6600 -102.6608 52° Northeast 443 510 27,000 492 Climbing Denver Center
Tue 12:25:37 AM 41.7447 -102.5686 39° Northeast 445 512 27,500 444 Climbing Denver Center
Tue 12:26:51 AM 41.8519 -102.4856 30° Northeast 443 510 28,000 489 Climbing Denver Center
Tue 12:27:52 AM 41.9933 -102.4058 23° Northeast 435 501 28,600 585 Climbing Denver Center
Tue 12:28:54 AM 42.1172 -102.3339 23° Northeast 435 501 29,200 537 Climbing Denver Center
Tue 12:29:55 AM 42.2244 -102.2711 23° Northeast 436 502 29,700 443 Climbing Denver Center
Tue 12:30:56 AM 42.3131 -102.2211 23° Northeast 435 501 30,100 439 Climbing Denver Center
Tue 12:31:58 AM 42.4542 -102.1386 23° Northeast 435 501 30,600 390 Climbing Denver Center
Tue 12:32:59 AM 42.5589 -102.0786 23° Northeast 429 494 30,900 341 Climbing Denver Center
Tue 12:34:01 AM 42.6839 -102.0092 22° Northeast 434 499 31,300 146 Climbing Denver Center
Tue 12:35:02 AM 42.7942 -101.9500 21° North 445 512 31,200 -148 Descending Denver Center
Tue 12:36:03 AM 42.9086 -101.8878 22° Northeast 460 529 31,000 -98 Descending Denver Center
Tue 12:37:05 AM 43.0425 -101.8072 24° Northeast 471 542 31,000  Level Denver Center
Tue 12:38:06 AM 43.1550 -101.7464 22° Northeast 473 544 31,000  Level Denver Center
Tue 12:39:07 AM 43.2797 -101.6847 20° North 474 545 31,000  Level Denver Center
Tue 12:40:09 AM 43.4056 -101.6228 20° North 480 552 31,000 146 Level Denver Center
Tue 12:41:10 AM 43.5556 -101.5461 20° North 478 550 31,300 344 Climbing Denver Center
Tue 12:42:11 AM 43.6547 -101.4975 20° North 472 543 31,700 443 Climbing Denver Center
Tue 12:43:12 AM 43.8036 -101.4369 16° North 463 533 32,200 390 Climbing Denver Center
Tue 12:44:14 AM 43.9264 -101.3897 15° North 458 527 32,500 293 Climbing Denver Center
Tue 12:45:15 AM 44.0508 -101.3478 14° North 459 528 32,800 246 Climbing Denver Center
Tue 12:46:16 AM 44.1500 -101.2325 40° Northeast 465 535 33,000 98 Climbing Denver Center
Tue 12:47:17 AM 44.2356 -101.0925 50° Northeast 473 544 33,000  Level Denver Center
Tue 12:48:19 AM 44.3247 -100.9525 48° Northeast 480 552 33,000  Level Denver Center
Tue 12:49:38 AM 44.4519 -100.7583 47° Northeast 484 557 33,000  Level Minneapolis Center
Tue 12:50:38 AM 44.5433 -100.6147 48° Northeast 490 564 33,000  Level Minneapolis Center
Tue 12:51:39 AM 44.6347 -100.4683 49° Northeast 498 573 33,000  Level Minneapolis Center
Tue 12:52:39 AM 44.7236 -100.3256 49° Northeast 492 566 33,000  Level Minneapolis Center
Tue 12:53:40 AM 44.8128 -100.1831 49° Northeast 490 564 33,000  Level Minneapolis Center
Tue 12:54:40 AM 44.8694 -100.0133 65° Northeast 490 564 33,000  Level Minneapolis Center
Tue 12:55:41 AM 44.9122 -99.8364 71° East 490 564 33,000  Level Minneapolis Center
Tue 12:56:41 AM 44.9625 -99.6653 67° East 486 559 33,000  Level Minneapolis Center
Tue 12:57:42 AM 45.0103 -99.4914 69° East 482 555 33,000  Level Minneapolis Center
Tue 12:58:42 AM 45.0667 -99.2803 69° East 480 552 33,000  Level Minneapolis Center
Tue 12:59:43 AM 45.1189 -99.1086 67° East 478 550 33,000  Level Minneapolis Center
Tue 01:00:43 AM 45.1692 -98.9333 68° East 481 554 33,000  Level Minneapolis Center
Tue 01:01:44 AM 45.2142 -98.7550 70° East 481 554 33,000  Level Minneapolis Center
Tue 01:02:44 AM 45.2817 -98.5992 58° Northeast 470 541 33,000  Level Minneapolis Center
Tue 01:03:45 AM 45.3789 -98.4792 41° Northeast 465 535 33,000 -545 Level Minneapolis Center
Tue 01:04:45 AM 45.4808 -98.3642 38° Northeast 465 535 31,900 -1,835 Descending Minneapolis Center
Tue 01:05:46 AM 45.5822 -98.2472 39° Northeast 469 540 29,300 -2,430 Descending Minneapolis Center
Tue 01:06:46 AM 45.6842 -98.1308 39° Northeast 470 541 27,000 -2,231 Descending Minneapolis Center
Tue 01:07:47 AM 45.7850 -98.0122 39° Northeast 451 519 24,800 -2,033 Descending Minneapolis Center
Tue 01:08:47 AM 45.8661 -97.9194 39° Northeast 426 490 22,900 -1,934 Descending Minneapolis Center
Tue 01:09:48 AM 45.9544 -97.8131 40° Northeast 418 481 20,900 -1,983 Descending Minneapolis Center
Tue 01:10:48 AM 46.0417 -97.7111 39° Northeast 411 473 18,900 -2,000 Descending Minneapolis Center
Tue 01:11:48 AM 46.1247 -97.6142 39° Northeast 397 457 16,900 -1,934 Descending Minneapolis Center
Tue 01:12:49 AM 46.2064 -97.5200 39° Northeast 361 415 15,000 -1,736 Descending Minneapolis Center
Tue 01:13:49 AM 46.2794 -97.4331 39° Northeast 332 382 13,400 -1,537 Descending Minneapolis Center
Tue 01:14:50 AM 46.3417 -97.3575 40° Northeast 303 349 11,900 -1,537 Descending Minneapolis Center
Tue 01:15:50 AM 46.4069 -97.2781 40° Northeast 296 341 10,300 -1,500 Descending Minneapolis Center
Tue 01:16:50 AM 46.4661 -97.2053 40° Northeast 291 335 8,900 -1,489 Descending Minneapolis Center
Tue 01:18:03 AM 46.5389 -97.1169 40° Northeast 284 327 7,000 -1,534 Descending Minneapolis Center
Tue 01:19:03 AM 46.6039 -97.0506 35° Northeast 281 323 5,500 -1,041 Descending Minneapolis Center
Tue 01:20:04 AM 46.6694 -97.0025 27° Northeast 274 315 4,900 -645 Descending Minneapolis Center
Tue 01:21:04 AM 46.7344 -96.9547 27° Northeast 252 290 4,200 -550 Descending Minneapolis Center
Tue 01:22:04 AM 46.7928 -96.9119 27° Northeast 246 283 3,800 -496 Descending Minneapolis Center
Tue 01:23:05 AM 46.8583 -96.8803 18° North 241 277 3,200 -545 Descending Minneapolis Center
Tue 01:24:05 AM 46.9236 -96.8806 360° North 239 275 2,700 -400 Descending Minneapolis Center
Tue 01:25:05 AM 46.9825 -96.8822 359° North 220 253 2,400 -149 Descending Minneapolis Center
Tue 01:26:06 AM 47.0142 -96.8361 45° Northeast 183 211 2,400 -298 Level Minneapolis Center
Tue 01:27:06 AM 46.9803 -96.8158 158° South 141 162 1,800 -600 Descending Minneapolis Center
Tue 01:28:06 AM 46.9433 -96.8156 180° South 128 147 1,200 -600 Descending Minneapolis Center
Tue 01:30:00 AM 46.9167 -96.8000 180° South  Level FlightAware Approximate

Login

Don't have an account? Register now (free) for customized features, flight alerts, and more!